sensor_id;sensor_type;location;lat;lon;timestamp;pressure;altitude;pressure_sealevel;temperature;humidity
19783;BME280;10051;40.294;-3.754;2022-10-31T00:02:23;94377.41;;;15.88;70.34
19783;BME280;10051;40.294;-3.754;2022-10-31T00:04:48;94400.53;;;15.96;70.20
19783;BME280;10051;40.294;-3.754;2022-10-31T00:07:13;94386.06;;;15.80;70.89
19783;BME280;10051;40.294;-3.754;2022-10-31T00:09:39;94386.59;;;15.90;70.57
19783;BME280;10051;40.294;-3.754;2022-10-31T00:12:05;94334.38;;;15.59;70.12
19783;BME280;10051;40.294;-3.754;2022-10-31T00:14:30;94401.16;;;16.02;70.24
19783;BME280;10051;40.294;-3.754;2022-10-31T00:16:55;94311.41;;;15.46;70.07
19783;BME280;10051;40.294;-3.754;2022-10-31T00:19:21;94316.44;;;15.56;69.80
19783;BME280;10051;40.294;-3.754;2022-10-31T00:21:46;94341.00;;;15.71;69.94
19783;BME280;10051;40.294;-3.754;2022-10-31T00:24:12;94307.69;;;15.47;69.64
19783;BME280;10051;40.294;-3.754;2022-10-31T00:26:37;94292.88;;;15.46;69.55
19783;BME280;10051;40.294;-3.754;2022-10-31T00:29:03;94373.25;;;16.04;69.46
19783;BME280;10051;40.294;-3.754;2022-10-31T00:31:29;94390.75;;;16.05;69.82
19783;BME280;10051;40.294;-3.754;2022-10-31T00:33:54;94395.75;;;16.16;69.23
19783;BME280;10051;40.294;-3.754;2022-10-31T00:36:20;94382.31;;;16.03;69.46
19783;BME280;10051;40.294;-3.754;2022-10-31T00:38:46;94398.56;;;16.11;69.63
19783;BME280;10051;40.294;-3.754;2022-10-31T00:41:13;94390.28;;;16.12;69.58
19783;BME280;10051;40.294;-3.754;2022-10-31T00:43:39;94334.00;;;15.75;69.68
19783;BME280;10051;40.294;-3.754;2022-10-31T00:46:05;94346.78;;;15.82;69.54
19783;BME280;10051;40.294;-3.754;2022-10-31T00:48:30;94316.91;;;15.50;70.11
19783;BME280;10051;40.294;-3.754;2022-10-31T00:50:56;94370.50;;;15.78;70.88
19783;BME280;10051;40.294;-3.754;2022-10-31T00:53:22;94295.25;;;15.25;71.18
19783;BME280;10051;40.294;-3.754;2022-10-31T00:55:47;94313.19;;;15.28;71.57
19783;BME280;10051;40.294;-3.754;2022-10-31T00:58:12;94372.97;;;15.74;71.35
19783;BME280;10051;40.294;-3.754;2022-10-31T01:00:38;94342.94;;;15.56;71.36
19783;BME280;10051;40.294;-3.754;2022-10-31T01:03:04;94331.94;;;15.31;71.91
19783;BME280;10051;40.294;-3.754;2022-10-31T01:05:29;94317.09;;;15.22;72.34
19783;BME280;10051;40.294;-3.754;2022-10-31T01:07:55;94341.13;;;15.34;72.79
19783;BME280;10051;40.294;-3.754;2022-10-31T01:10:20;94350.53;;;15.49;72.84
19783;BME280;10051;40.294;-3.754;2022-10-31T01:12:47;94234.31;;;14.62;72.92
19783;BME280;10051;40.294;-3.754;2022-10-31T01:15:15;94292.84;;;15.06;72.85
19783;BME280;10051;40.294;-3.754;2022-10-31T01:17:41;94282.34;;;15.23;71.99
19783;BME280;10051;40.294;-3.754;2022-10-31T01:20:09;94362.22;;;15.80;71.40
19783;BME280;10051;40.294;-3.754;2022-10-31T01:22:35;94314.13;;;15.55;71.19
19783;BME280;10051;40.294;-3.754;2022-10-31T01:25:00;94363.97;;;15.84;71.26
19783;BME280;10051;40.294;-3.754;2022-10-31T01:27:26;94246.91;;;15.10;70.94
19783;BME280;10051;40.294;-3.754;2022-10-31T01:29:51;94266.34;;;15.37;71.00
19783;BME280;10051;40.294;-3.754;2022-10-31T01:32:17;94239.81;;;15.20;70.48
19783;BME280;10051;40.294;-3.754;2022-10-31T01:34:42;94356.84;;;15.94;70.38
19783;BME280;10051;40.294;-3.754;2022-10-31T01:37:08;94293.53;;;15.52;70.53
19783;BME280;10051;40.294;-3.754;2022-10-31T01:39:33;94311.88;;;15.48;71.13
19783;BME280;10051;40.294;-3.754;2022-10-31T01:41:59;94333.41;;;15.46;72.12
19783;BME280;10051;40.294;-3.754;2022-10-31T01:47:16;94339.78;;;15.45;72.68
19783;BME280;10051;40.294;-3.754;2022-10-31T01:49:46;94336.41;;;15.54;72.53
19783;BME280;10051;40.294;-3.754;2022-10-31T01:52:49;94341.56;;;15.59;72.14
19783;BME280;10051;40.294;-3.754;2022-10-31T01:55:32;94350.66;;;15.75;71.61
19783;BME280;10051;40.294;-3.754;2022-10-31T01:58:08;94326.16;;;15.70;70.56
19783;BME280;10051;40.294;-3.754;2022-10-31T02:00:34;94323.78;;;15.59;70.90
19783;BME280;10051;40.294;-3.754;2022-10-31T02:03:00;94287.28;;;15.16;71.67
19783;BME280;10051;40.294;-3.754;2022-10-31T02:05:28;94341.22;;;15.52;71.53
19783;BME280;10051;40.294;-3.754;2022-10-31T02:08:08;94349.09;;;15.74;70.98
19783;BME280;10051;40.294;-3.754;2022-10-31T02:10:36;94317.50;;;15.46;70.84
19783;BME280;10051;40.294;-3.754;2022-10-31T02:13:04;94361.59;;;15.74;70.66
19783;BME280;10051;40.294;-3.754;2022-10-31T02:15:32;94288.56;;;15.19;70.30
19783;BME280;10051;40.294;-3.754;2022-10-31T02:17:58;94271.88;;;15.18;69.38
19783;BME280;10051;40.294;-3.754;2022-10-31T02:20:27;94350.66;;;15.75;69.59
19783;BME280;10051;40.294;-3.754;2022-10-31T02:28:56;94327.75;;;15.39;70.47
19783;BME280;10051;40.294;-3.754;2022-10-31T02:34:19;94341.22;;;15.52;70.72
19783;BME280;10051;40.294;-3.754;2022-10-31T02:36:53;94323.19;;;15.31;70.87
19783;BME280;10051;40.294;-3.754;2022-10-31T02:39:25;94344.69;;;15.29;71.38
19783;BME280;10051;40.294;-3.754;2022-10-31T02:42:34;94328.56;;;15.17;71.91
19783;BME280;10051;40.294;-3.754;2022-10-31T02:45:25;94345.06;;;15.37;71.44
19783;BME280;10051;40.294;-3.754;2022-10-31T02:47:53;94327.41;;;15.32;71.01
19783;BME280;10051;40.294;-3.754;2022-10-31T02:50:28;94286.16;;;15.08;70.55
19783;BME280;10051;40.294;-3.754;2022-10-31T02:52:56;94294.59;;;15.10;70.94
19783;BME280;10051;40.294;-3.754;2022-10-31T02:57:54;94337.53;;;15.30;71.21
19783;BME280;10051;40.294;-3.754;2022-10-31T03:00:21;94314.81;;;15.06;72.27
19783;BME280;10051;40.294;-3.754;2022-10-31T03:11:24;94260.53;;;14.95;70.91
19783;BME280;10051;40.294;-3.754;2022-10-31T03:17:05;94286.31;;;15.12;71.61
19783;BME280;10051;40.294;-3.754;2022-10-31T03:19:35;94280.69;;;15.05;72.19
19783;BME280;10051;40.294;-3.754;2022-10-31T03:24:39;94290.66;;;15.08;71.77
19783;BME280;10051;40.294;-3.754;2022-10-31T03:27:08;94255.63;;;14.79;72.28
19783;BME280;10051;40.294;-3.754;2022-10-31T03:29:36;94273.34;;;15.01;71.88
19783;BME280;10051;40.294;-3.754;2022-10-31T03:32:13;94241.78;;;14.82;71.64
19783;BME280;10051;40.294;-3.754;2022-10-31T03:34:41;94257.59;;;14.96;71.64
19783;BME280;10051;40.294;-3.754;2022-10-31T03:37:10;94272.34;;;14.89;72.14
19783;BME280;10051;40.294;-3.754;2022-10-31T03:39:38;94283.41;;;14.91;72.18
19783;BME280;10051;40.294;-3.754;2022-10-31T03:42:11;94225.25;;;14.54;72.49
19783;BME280;10051;40.294;-3.754;2022-10-31T03:44:39;94236.91;;;14.76;71.73
19783;BME280;10051;40.294;-3.754;2022-10-31T03:47:06;94284.47;;;15.12;71.43
19783;BME280;10051;40.294;-3.754;2022-10-31T03:49:32;94292.41;;;15.12;71.76
19783;BME280;10051;40.294;-3.754;2022-10-31T03:54:56;94282.22;;;14.74;73.49
19783;BME280;10051;40.294;-3.754;2022-10-31T03:57:34;94285.56;;;14.66;73.95
19783;BME280;10051;40.294;-3.754;2022-10-31T04:00:03;94272.44;;;14.61;74.28
19783;BME280;10051;40.294;-3.754;2022-10-31T04:02:31;94277.84;;;14.55;74.68
19783;BME280;10051;40.294;-3.754;2022-10-31T04:04:59;94289.88;;;14.62;74.51
19783;BME280;10051;40.294;-3.754;2022-10-31T04:07:27;94274.78;;;14.62;74.23
19783;BME280;10051;40.294;-3.754;2022-10-31T04:09:55;94279.09;;;14.58;74.28
19783;BME280;10051;40.294;-3.754;2022-10-31T04:12:24;94240.19;;;14.36;74.49
19783;BME280;10051;40.294;-3.754;2022-10-31T04:14:51;94276.91;;;14.51;75.02
19783;BME280;10051;40.294;-3.754;2022-10-31T04:17:19;94275.31;;;14.50;75.05
19783;BME280;10051;40.294;-3.754;2022-10-31T04:19:46;94257.53;;;14.42;75.01
19783;BME280;10051;40.294;-3.754;2022-10-31T04:22:12;94255.06;;;14.46;74.63
19783;BME280;10051;40.294;-3.754;2022-10-31T04:24:40;94230.09;;;14.38;74.17
19783;BME280;10051;40.294;-3.754;2022-10-31T04:27:05;94287.13;;;14.67;74.28
19783;BME280;10051;40.294;-3.754;2022-10-31T04:29:31;94285.34;;;14.76;73.83
19783;BME280;10051;40.294;-3.754;2022-10-31T04:31:56;94208.16;;;14.15;73.98
19783;BME280;10051;40.294;-3.754;2022-10-31T04:34:22;94273.81;;;14.72;73.78
19783;BME280;10051;40.294;-3.754;2022-10-31T04:36:47;94249.19;;;14.71;72.79
19783;BME280;10051;40.294;-3.754;2022-10-31T04:39:13;94290.88;;;14.89;73.21
19783;BME280;10051;40.294;-3.754;2022-10-31T04:41:38;94263.22;;;14.72;72.88
19783;BME280;10051;40.294;-3.754;2022-10-31T04:44:04;94181.69;;;14.28;72.47
19783;BME280;10051;40.294;-3.754;2022-10-31T04:46:29;94240.34;;;14.53;72.69
19783;BME280;10051;40.294;-3.754;2022-10-31T04:48:55;94244.72;;;14.58;73.06
19783;BME280;10051;40.294;-3.754;2022-10-31T04:51:20;94180.28;;;14.31;72.70
19783;BME280;10051;40.294;-3.754;2022-10-31T04:53:46;94150.78;;;14.15;72.12
19783;BME280;10051;40.294;-3.754;2022-10-31T04:56:11;94252.50;;;14.77;72.52
19783;BME280;10051;40.294;-3.754;2022-10-31T04:58:37;94249.13;;;14.63;73.03
19783;BME280;10051;40.294;-3.754;2022-10-31T05:01:02;94235.28;;;14.43;73.57
19783;BME280;10051;40.294;-3.754;2022-10-31T05:03:27;94242.13;;;14.44;74.10
19783;BME280;10051;40.294;-3.754;2022-10-31T05:05:53;94206.13;;;14.11;74.21
19783;BME280;10051;40.294;-3.754;2022-10-31T05:08:18;94138.72;;;13.63;74.31
19783;BME280;10051;40.294;-3.754;2022-10-31T05:10:44;94277.91;;;14.64;74.30
19783;BME280;10051;40.294;-3.754;2022-10-31T05:13:09;94238.25;;;14.41;74.23
19783;BME280;10051;40.294;-3.754;2022-10-31T05:15:35;94231.81;;;14.34;74.14
19783;BME280;10051;40.294;-3.754;2022-10-31T05:18:00;94233.00;;;14.27;74.77
19783;BME280;10051;40.294;-3.754;2022-10-31T05:20:28;94225.19;;;14.22;74.93
19783;BME280;10051;40.294;-3.754;2022-10-31T05:22:55;94230.47;;;14.22;75.34
19783;BME280;10051;40.294;-3.754;2022-10-31T05:25:23;94275.81;;;14.52;74.88
19783;BME280;10051;40.294;-3.754;2022-10-31T05:27:50;94290.66;;;14.62;74.69
19783;BME280;10051;40.294;-3.754;2022-10-31T05:30:22;94225.91;;;14.37;73.61
19783;BME280;10051;40.294;-3.754;2022-10-31T05:32:49;94195.91;;;14.19;73.36
19783;BME280;10051;40.294;-3.754;2022-10-31T05:35:27;94266.63;;;14.72;73.23
19783;BME280;10051;40.294;-3.754;2022-10-31T05:37:53;94211.94;;;14.45;72.63
19783;BME280;10051;40.294;-3.754;2022-10-31T05:40:19;94227.81;;;14.45;73.12
19783;BME280;10051;40.294;-3.754;2022-10-31T05:42:45;94255.84;;;14.46;73.74
19783;BME280;10051;40.294;-3.754;2022-10-31T05:45:16;94290.66;;;14.76;73.74
19783;BME280;10051;40.294;-3.754;2022-10-31T05:47:42;94219.59;;;14.24;73.85
19783;BME280;10051;40.294;-3.754;2022-10-31T05:50:08;94245.56;;;14.45;73.81
19783;BME280;10051;40.294;-3.754;2022-10-31T05:52:34;94288.41;;;14.92;73.62
19783;BME280;10051;40.294;-3.754;2022-10-31T05:55:00;94255.38;;;14.67;73.46
19783;BME280;10051;40.294;-3.754;2022-10-31T05:57:25;94291.59;;;14.80;74.25
19783;BME280;10051;40.294;-3.754;2022-10-31T05:59:51;94221.38;;;14.15;74.99
19783;BME280;10051;40.294;-3.754;2022-10-31T06:02:20;94220.53;;;14.05;75.62
19783;BME280;10051;40.294;-3.754;2022-10-31T06:04:45;94273.41;;;14.42;75.78
19783;BME280;10051;40.294;-3.754;2022-10-31T06:07:11;94224.16;;;14.09;75.98
19783;BME280;10051;40.294;-3.754;2022-10-31T06:09:36;94257.63;;;14.37;75.91
19783;BME280;10051;40.294;-3.754;2022-10-31T06:12:03;94232.41;;;14.31;75.26
19783;BME280;10051;40.294;-3.754;2022-10-31T06:14:28;94278.34;;;14.57;75.56
19783;BME280;10051;40.294;-3.754;2022-10-31T06:16:55;94225.59;;;14.16;75.97
19783;BME280;10051;40.294;-3.754;2022-10-31T06:19:20;94227.41;;;14.06;76.46
19783;BME280;10051;40.294;-3.754;2022-10-31T06:21:46;94152.03;;;13.58;76.95
19783;BME280;10051;40.294;-3.754;2022-10-31T06:24:11;94277.22;;;14.36;76.98
19783;BME280;10051;40.294;-3.754;2022-10-31T06:26:37;94281.59;;;14.32;77.22
19783;BME280;10051;40.294;-3.754;2022-10-31T06:29:02;94154.13;;;13.47;77.03
19783;BME280;10051;40.294;-3.754;2022-10-31T06:31:28;94279.69;;;14.32;77.37
19783;BME280;10051;40.294;-3.754;2022-10-31T06:33:53;94149.59;;;13.48;76.77
19783;BME280;10051;40.294;-3.754;2022-10-31T06:36:19;94289.81;;;14.30;76.98
19783;BME280;10051;40.294;-3.754;2022-10-31T06:38:44;94206.31;;;13.78;76.85
19783;BME280;10051;40.294;-3.754;2022-10-31T06:41:10;94225.97;;;13.86;77.36
19783;BME280;10051;40.294;-3.754;2022-10-31T06:43:35;94296.06;;;14.34;77.19
19783;BME280;10051;40.294;-3.754;2022-10-31T06:46:05;94307.44;;;14.35;77.12
19783;BME280;10051;40.294;-3.754;2022-10-31T06:48:31;94261.47;;;14.08;77.29
19783;BME280;10051;40.294;-3.754;2022-10-31T06:50:58;94281.81;;;14.21;77.29
19783;BME280;10051;40.294;-3.754;2022-10-31T06:53:24;94276.84;;;14.06;77.51
19783;BME280;10051;40.294;-3.754;2022-10-31T06:55:49;94285.91;;;14.13;78.08
19783;BME280;10051;40.294;-3.754;2022-10-31T06:58:15;94315.59;;;14.24;78.01
19783;BME280;10051;40.294;-3.754;2022-10-31T07:00:40;94298.47;;;14.08;77.97
19783;BME280;10051;40.294;-3.754;2022-10-31T07:03:10;94322.44;;;14.25;78.26
19783;BME280;10051;40.294;-3.754;2022-10-31T07:05:35;94204.50;;;13.51;77.51
19783;BME280;10051;40.294;-3.754;2022-10-31T07:08:04;94341.06;;;14.57;77.21
19783;BME280;10051;40.294;-3.754;2022-10-31T07:10:32;94303.88;;;14.39;76.79
19783;BME280;10051;40.294;-3.754;2022-10-31T07:13:00;94344.38;;;14.63;76.92
19783;BME280;10051;40.294;-3.754;2022-10-31T07:15:27;94279.03;;;14.26;76.48
19783;BME280;10051;40.294;-3.754;2022-10-31T07:17:54;94281.22;;;14.24;76.49
19783;BME280;10051;40.294;-3.754;2022-10-31T07:20:19;94346.44;;;14.66;76.95
19783;BME280;10051;40.294;-3.754;2022-10-31T07:22:45;94322.09;;;14.41;77.39
19783;BME280;10051;40.294;-3.754;2022-10-31T07:25:11;94345.88;;;14.69;77.03
19783;BME280;10051;40.294;-3.754;2022-10-31T07:27:41;94339.75;;;14.68;77.53
19783;BME280;10051;40.294;-3.754;2022-10-31T07:30:08;94315.97;;;14.54;77.31
19783;BME280;10051;40.294;-3.754;2022-10-31T07:35:12;94336.34;;;14.68;77.80
19783;BME280;10051;40.294;-3.754;2022-10-31T07:37:38;94323.66;;;14.42;78.34
19783;BME280;10051;40.294;-3.754;2022-10-31T07:40:05;94302.38;;;14.24;79.11
19783;BME280;10051;40.294;-3.754;2022-10-31T07:45:03;94283.28;;;14.13;79.59
19783;BME280;10051;40.294;-3.754;2022-10-31T07:47:28;94296.88;;;14.21;79.47
19783;BME280;10051;40.294;-3.754;2022-10-31T07:49:54;94304.09;;;14.29;79.82
19783;BME280;10051;40.294;-3.754;2022-10-31T07:52:20;94293.53;;;14.29;79.47
19783;BME280;10051;40.294;-3.754;2022-10-31T07:54:46;94329.81;;;14.51;79.82
19783;BME280;10051;40.294;-3.754;2022-10-31T07:57:11;94252.28;;;14.05;79.73
19783;BME280;10051;40.294;-3.754;2022-10-31T07:59:36;94268.69;;;14.16;79.67
19783;BME280;10051;40.294;-3.754;2022-10-31T08:02:02;94278.50;;;14.02;80.28
19783;BME280;10051;40.294;-3.754;2022-10-31T08:04:27;94323.41;;;14.30;80.29
19783;BME280;10051;40.294;-3.754;2022-10-31T08:06:53;94345.19;;;14.49;80.37
19783;BME280;10051;40.294;-3.754;2022-10-31T08:09:18;94359.28;;;14.58;80.62
19783;BME280;10051;40.294;-3.754;2022-10-31T08:11:44;94359.41;;;14.53;80.47
19783;BME280;10051;40.294;-3.754;2022-10-31T08:14:09;94336.53;;;14.35;81.15
19783;BME280;10051;40.294;-3.754;2022-10-31T08:16:35;94285.19;;;13.99;81.43
19783;BME280;10051;40.294;-3.754;2022-10-31T08:19:00;94338.16;;;14.45;81.38
19783;BME280;10051;40.294;-3.754;2022-10-31T08:21:26;94370.25;;;14.66;81.52
19783;BME280;10051;40.294;-3.754;2022-10-31T08:23:51;94385.94;;;14.76;80.64
19783;BME280;10051;40.294;-3.754;2022-10-31T08:26:16;94309.56;;;14.47;80.05
19783;BME280;10051;40.294;-3.754;2022-10-31T08:28:42;94350.44;;;14.77;79.72
19783;BME280;10051;40.294;-3.754;2022-10-31T08:31:07;94261.03;;;14.28;79.54
19783;BME280;10051;40.294;-3.754;2022-10-31T08:33:34;94381.28;;;15.05;79.21
19783;BME280;10051;40.294;-3.754;2022-10-31T08:36:00;94322.53;;;14.71;79.38
19783;BME280;10051;40.294;-3.754;2022-10-31T08:38:25;94343.69;;;14.94;79.49
19783;BME280;10051;40.294;-3.754;2022-10-31T08:40:51;94340.94;;;14.99;79.21
19783;BME280;10051;40.294;-3.754;2022-10-31T08:43:17;94356.22;;;15.02;79.21
19783;BME280;10051;40.294;-3.754;2022-10-31T08:45:44;94373.78;;;15.21;78.95
19783;BME280;10051;40.294;-3.754;2022-10-31T08:48:12;94373.16;;;15.24;78.63
19783;BME280;10051;40.294;-3.754;2022-10-31T08:50:38;94383.50;;;15.34;78.33
19783;BME280;10051;40.294;-3.754;2022-10-31T08:53:07;94377.25;;;15.30;78.14
19783;BME280;10051;40.294;-3.754;2022-10-31T08:55:34;94364.28;;;15.20;78.66
19783;BME280;10051;40.294;-3.754;2022-10-31T08:58:01;94338.28;;;14.99;78.57
19783;BME280;10051;40.294;-3.754;2022-10-31T09:00:27;94316.09;;;14.86;78.28
19783;BME280;10051;40.294;-3.754;2022-10-31T09:02:57;94358.16;;;15.10;78.29
19783;BME280;10051;40.294;-3.754;2022-10-31T09:05:23;94384.22;;;15.49;77.80
19783;BME280;10051;40.294;-3.754;2022-10-31T09:07:48;94369.44;;;15.56;77.07
19783;BME280;10051;40.294;-3.754;2022-10-31T09:10:14;94366.84;;;15.65;76.17
19783;BME280;10051;40.294;-3.754;2022-10-31T09:12:39;94288.84;;;15.17;76.07
19783;BME280;10051;40.294;-3.754;2022-10-31T09:15:07;94392.81;;;15.86;76.59
19783;BME280;10051;40.294;-3.754;2022-10-31T09:17:32;94347.59;;;15.51;77.15
19783;BME280;10051;40.294;-3.754;2022-10-31T09:19:57;94299.34;;;15.31;76.71
19783;BME280;10051;40.294;-3.754;2022-10-31T09:22:23;94344.97;;;15.51;77.63
19783;BME280;10051;40.294;-3.754;2022-10-31T09:24:48;94381.69;;;15.75;77.47
19783;BME280;10051;40.294;-3.754;2022-10-31T09:27:14;94389.66;;;15.75;77.54
19783;BME280;10051;40.294;-3.754;2022-10-31T09:29:39;94383.91;;;15.82;77.32
19783;BME280;10051;40.294;-3.754;2022-10-31T09:32:05;94378.97;;;15.89;77.27
19783;BME280;10051;40.294;-3.754;2022-10-31T09:34:30;94395.22;;;15.87;77.42
19783;BME280;10051;40.294;-3.754;2022-10-31T09:36:56;94387.78;;;15.75;77.37
19783;BME280;10051;40.294;-3.754;2022-10-31T09:39:21;94409.34;;;15.83;77.87
19783;BME280;10051;40.294;-3.754;2022-10-31T09:42:27;94408.94;;;15.89;77.61
19783;BME280;10051;40.294;-3.754;2022-10-31T09:51:25;94409.56;;;15.95;77.99
19783;BME280;10051;40.294;-3.754;2022-10-31T09:54:00;94347.41;;;15.47;78.29
19783;BME280;10051;40.294;-3.754;2022-10-31T09:56:28;94394.13;;;15.88;78.20
19783;BME280;10051;40.294;-3.754;2022-10-31T09:58:58;94339.81;;;15.54;77.70
19783;BME280;10051;40.294;-3.754;2022-10-31T10:01:41;94376.28;;;15.80;78.39
19783;BME280;10051;40.294;-3.754;2022-10-31T10:04:31;94402.56;;;15.99;77.58
19783;BME280;10051;40.294;-3.754;2022-10-31T10:06:58;94354.22;;;15.62;78.05
19783;BME280;10051;40.294;-3.754;2022-10-31T10:09:26;94413.00;;;15.96;78.24
19783;BME280;10051;40.294;-3.754;2022-10-31T10:12:01;94419.00;;;16.10;77.44
19783;BME280;10051;40.294;-3.754;2022-10-31T10:14:58;94423.78;;;15.99;77.84
19783;BME280;10051;40.294;-3.754;2022-10-31T10:23:11;94439.75;;;16.17;77.97
19783;BME280;10051;40.294;-3.754;2022-10-31T10:25:40;94449.13;;;16.23;77.21
19783;BME280;10051;40.294;-3.754;2022-10-31T10:28:23;94459.41;;;16.16;77.19
19783;BME280;10051;40.294;-3.754;2022-10-31T10:30:56;94433.50;;;16.13;77.02
19783;BME280;10051;40.294;-3.754;2022-10-31T10:33:32;94432.63;;;16.26;76.94
19783;BME280;10051;40.294;-3.754;2022-10-31T10:36:00;94435.88;;;16.23;77.08
19783;BME280;10051;40.294;-3.754;2022-10-31T10:38:51;94457.78;;;16.38;76.50
19783;BME280;10051;40.294;-3.754;2022-10-31T10:41:20;94450.94;;;16.45;75.83
19783;BME280;10051;40.294;-3.754;2022-10-31T10:43:49;94438.59;;;16.41;76.61
19783;BME280;10051;40.294;-3.754;2022-10-31T10:51:44;94431.59;;;16.62;75.59
19783;BME280;10051;40.294;-3.754;2022-10-31T10:54:33;94440.97;;;16.60;75.11
19783;BME280;10051;40.294;-3.754;2022-10-31T10:59:34;94421.09;;;16.31;75.68
19783;BME280;10051;40.294;-3.754;2022-10-31T11:02:00;94449.56;;;16.57;75.02
19783;BME280;10051;40.294;-3.754;2022-10-31T11:04:34;94413.63;;;16.42;74.72
19783;BME280;10051;40.294;-3.754;2022-10-31T11:07:08;94396.22;;;16.18;75.91
19783;BME280;10051;40.294;-3.754;2022-10-31T11:09:35;94436.13;;;16.53;75.77
19783;BME280;10051;40.294;-3.754;2022-10-31T11:12:09;94302.00;;;15.71;75.61
19783;BME280;10051;40.294;-3.754;2022-10-31T11:15:02;94451.75;;;16.63;75.02
19783;BME280;10051;40.294;-3.754;2022-10-31T11:17:37;94430.66;;;16.49;74.59
19783;BME280;10051;40.294;-3.754;2022-10-31T11:20:26;94430.16;;;16.47;74.24
19783;BME280;10051;40.294;-3.754;2022-10-31T11:23:02;94459.28;;;16.79;74.46
19783;BME280;10051;40.294;-3.754;2022-10-31T11:25:28;94407.56;;;16.50;73.33
19783;BME280;10051;40.294;-3.754;2022-10-31T11:28:05;94431.78;;;16.75;73.80
19783;BME280;10051;40.294;-3.754;2022-10-31T11:30:42;94454.03;;;16.97;73.46
19783;BME280;10051;40.294;-3.754;2022-10-31T11:33:17;94276.03;;;15.91;73.25
19783;BME280;10051;40.294;-3.754;2022-10-31T11:35:43;94439.66;;;16.98;73.64
19783;BME280;10051;40.294;-3.754;2022-10-31T11:38:19;94437.47;;;17.00;72.70
19783;BME280;10051;40.294;-3.754;2022-10-31T11:40:56;94444.63;;;16.99;73.30
19783;BME280;10051;40.294;-3.754;2022-10-31T11:43:23;94425.09;;;16.86;73.35
19783;BME280;10051;40.294;-3.754;2022-10-31T11:45:49;94328.06;;;16.27;73.27
19783;BME280;10051;40.294;-3.754;2022-10-31T11:48:23;94441.69;;;17.09;72.91
19783;BME280;10051;40.294;-3.754;2022-10-31T11:50:54;94444.00;;;17.11;72.28
19783;BME280;10051;40.294;-3.754;2022-10-31T11:53:27;94444.19;;;17.15;72.20
19783;BME280;10051;40.294;-3.754;2022-10-31T11:56:13;94351.19;;;16.53;72.00
19783;BME280;10051;40.294;-3.754;2022-10-31T11:58:39;94442.00;;;17.17;71.42
19783;BME280;10051;40.294;-3.754;2022-10-31T12:01:04;94418.19;;;16.94;71.01
19783;BME280;10051;40.294;-3.754;2022-10-31T12:03:42;94445.25;;;17.31;70.81
19783;BME280;10051;40.294;-3.754;2022-10-31T12:06:20;94417.75;;;17.18;70.40
19783;BME280;10051;40.294;-3.754;2022-10-31T12:08:47;94412.63;;;17.04;70.30
19783;BME280;10051;40.294;-3.754;2022-10-31T12:14:31;94452.44;;;17.48;70.24
19783;BME280;10051;40.294;-3.754;2022-10-31T12:22:19;94454.91;;;17.71;69.28
19783;BME280;10051;40.294;-3.754;2022-10-31T12:25:02;94449.13;;;17.69;69.22
19783;BME280;10051;40.294;-3.754;2022-10-31T12:27:40;94447.09;;;17.66;69.26
19783;BME280;10051;40.294;-3.754;2022-10-31T12:33:08;94415.84;;;17.45;68.94
19783;BME280;10051;40.294;-3.754;2022-10-31T12:58:40;94436.16;;;17.50;70.04
19783;BME280;10051;40.294;-3.754;2022-10-31T13:01:11;94442.88;;;17.56;69.60
19783;BME280;10051;40.294;-3.754;2022-10-31T13:03:49;94435.22;;;17.54;69.12
19783;BME280;10051;40.294;-3.754;2022-10-31T13:06:22;94436.47;;;17.57;69.37
19783;BME280;10051;40.294;-3.754;2022-10-31T13:08:55;94431.47;;;17.56;68.97
19783;BME280;10051;40.294;-3.754;2022-10-31T13:11:34;94454.28;;;17.74;69.03
19783;BME280;10051;40.294;-3.754;2022-10-31T13:14:11;94457.41;;;17.76;69.37
19783;BME280;10051;40.294;-3.754;2022-10-31T13:16:44;94453.78;;;17.81;68.65
19783;BME280;10051;40.294;-3.754;2022-10-31T13:19:18;94450.94;;;17.86;66.93
19783;BME280;10051;40.294;-3.754;2022-10-31T13:22:00;94399.56;;;17.56;66.76
19783;BME280;10051;40.294;-3.754;2022-10-31T13:24:42;94432.94;;;17.92;66.08
19783;BME280;10051;40.294;-3.754;2022-10-31T13:27:22;94447.19;;;17.87;65.89
19783;BME280;10051;40.294;-3.754;2022-10-31T13:29:58;94449.81;;;17.96;66.07
19783;BME280;10051;40.294;-3.754;2022-10-31T13:32:29;94423.75;;;17.80;64.75
19783;BME280;10051;40.294;-3.754;2022-10-31T13:35:01;94427.50;;;17.79;64.49
19783;BME280;10051;40.294;-3.754;2022-10-31T13:45:53;94420.75;;;17.82;64.78
19783;BME280;10051;40.294;-3.754;2022-10-31T13:51:00;94436.03;;;17.94;64.51
19783;BME280;10051;40.294;-3.754;2022-10-31T13:53:43;94422.03;;;17.84;64.36
19783;BME280;10051;40.294;-3.754;2022-10-31T13:56:20;94436.69;;;17.91;63.03
19783;BME280;10051;40.294;-3.754;2022-10-31T13:59:03;94410.94;;;17.74;63.57
19783;BME280;10051;40.294;-3.754;2022-10-31T14:01:31;94402.34;;;17.68;63.77
19783;BME280;10051;40.294;-3.754;2022-10-31T14:04:04;94437.47;;;17.91;64.44
19783;BME280;10051;40.294;-3.754;2022-10-31T14:07:07;94440.59;;;17.93;63.65
19783;BME280;10051;40.294;-3.754;2022-10-31T14:10:05;94433.94;;;17.78;65.55
19783;BME280;10051;40.294;-3.754;2022-10-31T14:12:43;94387.84;;;17.48;65.85
19783;BME280;10051;40.294;-3.754;2022-10-31T14:15:20;94441.72;;;17.83;65.99
19783;BME280;10051;40.294;-3.754;2022-10-31T14:17:52;94436.13;;;17.76;66.46
19783;BME280;10051;40.294;-3.754;2022-10-31T14:22:45;94358.38;;;17.14;67.21
19783;BME280;10051;40.294;-3.754;2022-10-31T14:25:31;94441.13;;;17.69;68.05
19783;BME280;10051;40.294;-3.754;2022-10-31T14:27:58;94414.13;;;17.41;68.99
19783;BME280;10051;40.294;-3.754;2022-10-31T14:30:26;94431.47;;;17.56;69.83
19783;BME280;10051;40.294;-3.754;2022-10-31T14:33:01;94374.63;;;17.21;69.80
19783;BME280;10051;40.294;-3.754;2022-10-31T14:35:51;94414.94;;;17.41;69.67
19783;BME280;10051;40.294;-3.754;2022-10-31T14:38:32;94422.09;;;17.49;68.84
19783;BME280;10051;40.294;-3.754;2022-10-31T14:51:52;94384.47;;;17.21;69.25
19783;BME280;10051;40.294;-3.754;2022-10-31T14:54:32;94424.47;;;17.42;69.04
19783;BME280;10051;40.294;-3.754;2022-10-31T14:57:04;94360.59;;;17.03;68.22
19783;BME280;10051;40.294;-3.754;2022-10-31T14:59:33;94410.72;;;17.22;68.22